Latest Weather Observations for Middle Percy Island

IDQ60801

Issued at 3:05 pm EST Monday 24 November 2014 (issued every 30 minutes, with the page automatically refreshed every 10 minutes)

About weather observations | Map of weather stations | Latest weather observations for QLD | Other Formats
Station Details ID: 200001 Name: MIDDLE PERCY ISLAND Lat: -21.66 Lon: 150.27 Height: 208.7 m
Data from the previous 72 hours. | See also: Recent months at Middle Percy Island
Date/Time
EST
Temp
°C
App
Temp
°C
Dew
Point
Rel
Hum
%
Delta-T
°C
Wind Press
QNH
hPa
Press
MSL
hPa
Rain
since 9 am
mm
Dir
 
Spd
km/h
Gust
km/h
Spd
kts
Gust
kts
24/03:00pm 26.3 26.8 21.1 73 3.5 NE 20 30 11 16 1014.3 1013.2 0.2
24/02:30pm 26.9 27.5 21.0 70 3.9 NE 19 28 10 15 1014.7 1013.6 0.2
24/02:00pm 26.8 27.2 20.6 69 4.1 NE 19 32 10 17 1015.2 1014.1 0.2
24/01:30pm 27.9 28.6 21.2 67 4.5 NE 19 30 10 16 1015.6 1014.4 0.2
24/01:00pm 27.2 27.3 20.3 66 4.6 NE 20 32 11 17 1015.8 1014.6 0.2
24/12:30pm 26.9 27.2 20.5 68 4.2 NE 19 28 10 15 1016.1 1015.0 0.2
24/12:00pm 28.1 29.0 20.9 65 4.8 ENE 17 32 9 17 1016.3 1015.2 0.2
24/11:30am 27.3 27.8 20.9 68 4.3 NE 19 28 10 15 1016.7 1015.6 0.2
24/11:00am 27.4 28.2 21.4 70 4.0 NE 19 32 10 17 1016.9 1015.8 0.2
24/10:30am 27.4 28.0 21.0 68 4.3 ENE 19 33 10 18 1017.1 1016.0 0.2
24/10:00am 26.8 28.2 21.8 74 3.4 NE 17 26 9 14 1017.4 1016.3 0.0
24/09:30am 23.9 26.2 22.0 89 1.3 ENE 13 20 7 11 1017.6 1016.5 0.0
24/09:00am 25.1 26.5 21.0 78 2.7 NE 15 24 8 13 1017.5 1016.4 0.0
24/08:30am 25.6 25.6 20.2 72 3.5 ENE 20 32 11 17 1017.5 1016.4 0.0
24/08:00am 25.1 26.3 21.4 80 2.5 NE 17 28 9 15 1017.4 1016.3 0.0
24/07:30am 25.2 26.2 21.7 81 2.3 NE 19 30 10 16 1017.1 1016.0 0.0
24/07:00am 24.7 26.2 21.2 81 2.3 ENE 15 24 8 13 1017.1 1016.0 0.0
24/06:30am 24.7 26.3 21.4 82 2.2 NE 15 22 8 12 1016.8 1015.7 0.0
24/06:00am 23.8 25.0 20.7 83 2.0 NNE 15 24 8 13 1016.5 1015.4 0.0
24/05:30am 23.4 24.4 20.3 83 2.0 NE 15 20 8 11 1016.1 1015.0 0.0
24/05:00am 23.1 24.5 20.4 85 1.8 NE 13 20 7 11 1016.0 1014.9 0.0
24/04:30am 23.1 24.8 21.0 88 1.4 NNE 13 19 7 10 1015.7 1014.5 0.0
24/04:00am 22.9 23.9 21.0 89 1.3 NNE 17 26 9 14 1015.6 1014.4 0.0
24/03:30am 23.1 24.3 21.4 90 1.1 NNE 17 24 9 13 1015.6 1014.4 0.0
24/03:00am 23.4 24.4 21.7 90 1.1 NE 19 30 10 16 1015.4 1014.2 0.0
24/02:30am 23.6 24.8 21.5 88 1.4 NE 17 26 9 14 1015.5 1014.3 0.0
24/02:00am 23.4 25.0 21.5 89 1.3 NE 15 24 8 13 1015.8 1014.6 0.0
24/01:30am 23.5 25.2 21.6 89 1.3 NE 15 26 8 14 1016.0 1014.9 0.0
24/01:00am 23.7 25.1 21.8 89 1.3 NE 17 24 9 13 1016.2 1015.1 0.0
24/12:30am 23.5 25.7 21.8 90 1.1 NE 13 22 7 12 1016.5 1015.4 0.0
24/12:00am 23.6 24.9 21.7 89 1.3 NE 17 24 9 13 1016.8 1015.7 0.0
 
Date/Time
EST
Temp
°C
App
Temp
°C
Dew
Point
Rel
Hum
%
Delta-T
°C
Wind Press
QNH
hPa
Press
MSL
hPa
Rain
since 9 am
mm
Dir
 
Spd
km/h
Gust
km/h
Spd
kts
Gust
kts
23/11:30pm 23.6 26.2 21.9 90 1.1 ENE 11 17 6 9 1017.2 1016.1 0.0
23/11:00pm 23.6 25.6 21.5 88 1.4 NE 13 20 7 11 1017.3 1016.2 0.0
23/10:30pm 23.6 26.2 21.9 90 1.1 NE 11 20 6 11 1017.3 1016.2 0.0
23/10:00pm 23.6 25.7 21.7 89 1.3 NE 13 20 7 11 1017.1 1016.0 0.0
23/09:30pm 23.6 24.8 21.5 88 1.4 NE 17 26 9 14 1016.9 1015.8 0.0
23/09:00pm 23.6 24.7 21.3 87 1.5 NE 17 28 9 15 1016.7 1015.6 0.0
23/08:30pm 23.6 24.8 21.5 88 1.4 NE 17 24 9 13 1016.5 1015.4 0.0
23/08:00pm 23.5 24.1 21.0 86 1.6 NE 19 30 10 16 1016.3 1015.2 0.0
23/07:30pm 23.6 24.9 20.9 85 1.8 NE 15 26 8 14 1016.1 1015.0 0.0
23/07:00pm 23.6 24.8 20.7 84 1.9 NE 15 22 8 12 1015.9 1014.8 0.0
23/06:30pm 23.7 24.4 20.4 82 2.2 NE 17 24 9 13 1015.6 1014.4 0.0
23/06:00pm 24.1 24.4 20.4 80 2.4 NE 19 28 10 15 1015.2 1014.1 0.0
23/05:30pm 24.6 24.8 20.1 76 2.9 ENE 19 26 10 14 1015.1 1014.0 0.0
23/05:00pm 25.1 25.8 20.4 75 3.1 NE 17 28 9 15 1015.2 1014.1 0.0
23/04:30pm 25.7 26.3 20.3 72 3.6 ENE 17 26 9 14 1015.2 1014.1 0.0
23/04:00pm 26.0 27.4 20.3 71 3.7 ENE 13 24 7 13 1015.2 1014.1 0.0
23/03:30pm 25.9 26.9 20.2 71 3.7 NE 15 24 8 13 1015.5 1014.3 0.0
23/03:00pm 27.1 28.7 20.7 68 4.2 E 13 22 7 12 1015.7 1014.5 0.0
23/02:30pm 27.3 29.2 20.6 67 4.4 E 11 17 6 9 1016.0 1014.9 0.0
23/02:00pm 27.3 28.8 21.3 69 4.0 ESE 15 28 8 15 1016.3 1015.2 0.0
23/01:30pm 26.3 27.2 20.8 71 3.6 ESE 17 24 9 13 1016.7 1015.6 0.0
23/01:00pm 25.7 26.0 20.5 73 3.4 SE 19 24 10 13 1017.0 1015.9 0.0
23/12:30pm 26.7 28.0 20.8 70 3.9 ESE 15 24 8 13 1017.2 1016.1 0.0
23/12:00pm 27.1 28.4 21.6 72 3.7 SE 17 22 9 12 1017.4 1016.3 0.0
23/11:30am 27.2 28.9 21.0 69 4.1 ESE 13 22 7 12 1017.9 1016.8 0.0
23/11:00am 28.7 30.7 21.5 65 4.8 E 13 26 7 14 1018.1 1017.0 0.0
23/10:30am 27.2 29.3 21.0 69 4.1 E 11 20 6 11 1018.1 1017.0 0.0
23/10:00am 26.0 27.0 21.0 74 3.3 NE 17 24 9 13 1018.3 1017.2 0.0
23/09:30am 27.0 28.3 21.7 73 3.6 ENE 17 22 9 12 1018.3 1017.2 0.0
23/09:00am 26.6 28.4 21.8 75 3.2 ENE 15 20 8 11 1018.2 1017.1 0.0
23/08:30am 25.8 28.0 21.2 76 3.1 ENE 11 19 6 10 1018.1 1017.0 0.0
23/08:00am 25.8 27.8 21.5 77 2.9 NE 13 20 7 11 1017.9 1016.8 0.0
23/07:30am 25.3 26.8 21.2 78 2.7 NE 15 22 8 12 1017.6 1016.5 0.0
23/07:00am 25.0 26.7 21.7 82 2.2 NE 15 20 8 11 1017.3 1016.2 0.0
23/06:30am 24.3 26.2 21.4 84 1.9 ENE 13 22 7 12 1017.0 1015.9 0.0
23/06:00am 23.9 26.2 21.4 86 1.7 NE 11 17 6 9 1016.7 1015.6 0.0
23/05:30am 23.2 25.6 21.5 90 1.1 NE 11 19 6 10 1016.2 1015.1 0.0
23/05:00am 22.9 25.7 21.5 92 0.9 NE 9 15 5 8 1016.0 1014.9 0.0
23/04:30am 23.0 25.8 21.5 91 1.0 NE 9 13 5 7 1015.8 1014.6 0.0
23/04:00am 23.0 25.4 21.5 91 1.0 NE 11 17 6 9 1015.6 1014.4 0.0
23/03:30am 23.0 24.9 21.3 90 1.1 NE 13 19 7 10 1015.5 1014.3 0.0
23/03:00am 23.3 25.4 21.7 91 1.1 NE 13 19 7 10 1015.5 1014.3 0.0
23/02:30am 23.3 25.0 21.6 90 1.1 NNE 15 20 8 11 1015.4 1014.2 0.0
23/02:00am 23.3 24.5 21.4 89 1.3 NE 17 24 9 13 1015.4 1014.2 0.0
23/01:30am 23.2 24.1 21.5 90 1.1 NE 19 26 10 14 1015.2 1014.1 0.0
23/01:00am 23.4 24.2 21.7 90 1.1 NE 20 28 11 15 1015.4 1014.2 0.0
23/12:30am 23.4 23.7 21.5 89 1.3 NE 22 30 12 16 1015.8 1014.6 0.0
23/12:00am 23.5 24.2 21.6 89 1.3 NNE 20 26 11 14 1016.3 1015.2 0.0
 
Date/Time
EST
Temp
°C
App
Temp
°C
Dew
Point
Rel
Hum
%
Delta-T
°C
Wind Press
QNH
hPa
Press
MSL
hPa
Rain
since 9 am
mm
Dir
 
Spd
km/h
Gust
km/h
Spd
kts
Gust
kts
22/11:30pm 23.6 24.5 22.0 91 1.1 NE 20 28 11 15 1016.5 1015.4 0.0
22/11:00pm 23.7 24.9 22.1 91 1.1 NNE 19 28 10 15 1016.6 1015.5 0.0
22/10:30pm 23.9 25.0 22.3 91 1.1 NNE 20 30 11 16 1016.5 1015.4 0.0
22/10:00pm 23.8 24.8 22.1 90 1.1 NE 20 30 11 16 1016.6 1015.5 0.0
22/09:30pm 23.8 24.8 22.1 90 1.1 NE 20 28 11 15 1016.5 1015.4 0.0
22/09:00pm 24.0 25.1 21.9 88 1.4 NE 19 30 10 16 1016.3 1015.2 0.0
22/08:30pm 24.0 24.9 21.9 88 1.4 NE 20 30 11 16 1016.0 1014.9 0.0
22/08:00pm 24.0 24.8 21.7 87 1.5 NNE 20 32 11 17 1015.8 1014.6 0.0
22/07:30pm 24.1 24.4 21.6 86 1.7 NE 22 32 12 17 1015.5 1014.3 0.0
22/07:00pm 24.1 24.4 20.4 80 2.4 NNE 19 28 10 15 1015.1 1014.0 0.0
22/06:30pm 24.1 25.1 21.0 83 2.0 NNE 17 24 9 13 1014.8 1013.7 0.0
22/06:00pm 24.4 25.1 20.5 79 2.6 NNE 17 24 9 13 1014.4 1013.3 0.0
22/05:30pm 24.9 25.5 21.0 79 2.6 NNE 19 26 10 14 1014.1 1013.0 0.0
22/05:00pm 25.5 26.3 20.7 75 3.2 NE 17 22 9 12 1013.9 1012.8 0.0
22/04:30pm 26.1 27.8 20.9 73 3.5 NNE 13 22 7 12 1013.8 1012.7 0.0
22/04:00pm 26.6 28.6 21.6 74 3.4 NE 13 22 7 12 1013.8 1012.7 0.0
22/03:30pm 27.0 29.4 20.8 69 4.1 NNE 9 17 5 9 1014.0 1012.9 0.0
22/03:00pm 25.9 28.3 20.9 74 3.3 NE 9 13 5 7 1014.4 1013.3 0.0
22/02:30pm 26.2 29.9 21.4 75 3.2 W 4 9 2 5 1014.9 1013.8 0.0
22/02:00pm 26.2 28.4 21.2 74 3.3 S 11 15 6 8 1015.4 1014.2 0.0
22/01:30pm 27.4 29.9 21.7 71 3.8 S 11 19 6 10 1015.6 1014.4 0.0
22/01:00pm 26.8 29.7 22.4 77 3.0 SSW 11 17 6 9 1015.7 1014.5 0.0
22/12:30pm 26.5 29.6 22.1 77 3.0 SSW 9 15 5 8 1016.2 1015.1 0.0
22/12:00pm 26.4 29.8 21.6 75 3.2 SSW 6 11 3 6 1016.6 1015.5 0.0
22/11:30am 27.9 30.0 21.0 66 4.6 N 11 19 6 10 1016.9 1015.8 0.0
22/11:00am 26.8 28.7 22.0 75 3.2 N 15 20 8 11 1017.2 1016.1 0.0
22/10:30am 26.7 28.4 21.0 71 3.8 N 13 19 7 10 1017.3 1016.2 0.0
22/10:00am 26.7 28.1 20.3 68 4.2 N 13 17 7 9 1017.4 1016.3 0.0
22/09:30am 27.1 28.9 21.2 70 3.9 N 13 20 7 11 1017.5 1016.4 0.0
22/09:00am 26.3 28.4 21.7 76 3.1 N 13 19 7 10 1017.4 1016.3 0.0
22/08:30am 26.6 28.8 21.1 72 3.7 N 11 17 6 9 1017.5 1016.4 0.0
22/08:00am 26.0 27.4 21.9 78 2.8 N 17 22 9 12 1017.3 1016.2 0.0
22/07:30am 25.4 27.9 22.5 84 2.0 N 13 19 7 10 1017.1 1016.0 0.0
22/07:00am 24.7 27.1 22.2 86 1.7 N 13 19 7 10 1016.9 1015.8 0.0
22/06:30am 24.3 26.8 22.4 89 1.3 N 13 20 7 11 1016.3 1015.2 0.0
22/06:00am 24.0 26.9 22.4 91 1.1 N 11 19 6 10 1016.0 1014.9 0.0
22/05:30am 23.5 25.8 22.1 92 0.9 N 13 19 7 10 1015.5 1014.3 0.0
22/05:00am 23.4 25.8 22.2 93 0.8 N 13 17 7 9 1015.0 1013.9 0.0
22/04:30am 23.5 25.5 22.3 93 0.8 N 15 20 8 11 1014.4 1013.3 0.0
22/04:00am 23.4 25.0 22.2 93 0.8 N 17 24 9 13 1014.1 1013.0 0.0
22/03:30am 23.4 24.9 22.0 92 0.9 N 17 24 9 13 1014.1 1013.0 0.0
22/03:00am 23.5 25.8 22.1 92 0.9 N 13 19 7 10 1014.1 1013.0 0.0
22/02:30am 23.6 25.6 22.2 92 0.9 NNE 15 24 8 13 1014.2 1013.1 0.0
22/02:00am 23.6 25.5 22.0 91 1.1 NNE 15 22 8 12 1014.4 1013.3 0.0
22/01:30am 23.7 26.0 22.7 94 0.7 N 15 24 8 13 1014.5 1013.4 0.0
22/01:00am 23.6 25.3 22.4 93 0.8 NNE 17 24 9 13 1014.6 1013.5 0.0
22/12:30am 23.6 25.3 22.4 93 0.8 N 17 24 9 13 1015.1 1014.0 0.0
22/12:00am 23.6 25.6 22.2 92 0.9 NNE 15 22 8 12 1015.7 1014.5 0.0
 
Date/Time
EST
Temp
°C
App
Temp
°C
Dew
Point
Rel
Hum
%
Delta-T
°C
Wind Press
QNH
hPa
Press
MSL
hPa
Rain
since 9 am
mm
Dir
 
Spd
km/h
Gust
km/h
Spd
kts
Gust
kts
21/11:30pm 23.6 25.6 22.2 92 0.9 N 15 20 8 11 1016.1 1015.0 0.0
21/11:00pm 23.6 25.1 22.0 91 1.1 NNE 17 26 9 14 1015.9 1014.8 0.0
21/10:30pm 23.6 25.5 22.0 91 1.1 NNE 15 22 8 12 1016.0 1014.9 0.0
21/10:00pm 23.6 25.1 22.0 91 1.1 NNE 17 24 9 13 1016.0 1014.9 0.0
21/09:30pm 23.7 25.4 21.6 88 1.4 NNE 15 22 8 12 1016.1 1015.0 0.0
21/09:00pm 24.1 26.1 22.2 89 1.3 NNE 15 22 8 12 1015.9 1014.8 0.0
21/08:30pm 23.9 25.4 22.0 89 1.3 NNE 17 26 9 14 1015.2 1014.1 0.0
21/08:00pm 23.9 25.0 22.0 89 1.3 NNE 19 26 10 14 1015.1 1014.0 0.0
21/07:30pm 23.8 25.1 21.7 88 1.4 NNE 17 28 9 15 1014.8 1013.7 0.0
21/07:00pm 23.9 25.9 21.6 87 1.5 NNE 13 20 7 11 1014.5 1013.4 0.0
21/06:30pm 24.0 25.6 21.5 86 1.7 NNE 15 24 8 13 1014.3 1013.2 0.0
21/06:00pm 24.3 25.0 21.2 83 2.1 NNE 19 26 10 14 1014.2 1013.1 0.0
21/05:30pm 24.8 25.4 21.1 80 2.5 NNE 19 24 10 13 1013.9 1012.8 0.0
21/05:00pm 25.4 26.8 21.1 77 2.9 NNE 15 26 8 14 1013.9 1012.8 0.0
21/04:30pm 25.7 26.9 20.7 74 3.3 NNE 15 22 8 12 1014.0 1012.9 0.0
21/04:00pm 26.0 26.5 20.8 73 3.4 NNE 19 26 10 14 1013.9 1012.8 0.0
21/03:30pm 27.0 28.5 20.6 68 4.2 NNE 13 26 7 14 1014.0 1012.9 0.0

Other Formats:

Comma delimited format used in spreadsheet applications
http://www.bom.gov.au/fwo/IDQ60801/IDQ60801.94372.axf

JavaScript Object Notation format (JSON) in row-major order
http://www.bom.gov.au/fwo/IDQ60801/IDQ60801.94372.json